sensor_id;sensor_type;location;lat;lon;timestamp;P1;durP1;ratioP1;P2;durP2;ratioP2
3407;SDS011;1717;50.240;8.406;2023-07-13T00:00:41;2.10;;;1.60;;
3407;SDS011;1717;50.240;8.406;2023-07-13T00:03:08;2.60;;;2.00;;
3407;SDS011;1717;50.240;8.406;2023-07-13T00:05:38;3.30;;;1.70;;
3407;SDS011;1717;50.240;8.406;2023-07-13T00:08:07;3.10;;;1.40;;
3407;SDS011;1717;50.240;8.406;2023-07-13T00:10:38;3.23;;;1.60;;
3407;SDS011;1717;50.240;8.406;2023-07-13T00:13:05;2.10;;;1.37;;
3407;SDS011;1717;50.240;8.406;2023-07-13T00:15:33;1.70;;;1.53;;
3407;SDS011;1717;50.240;8.406;2023-07-13T00:18:00;2.30;;;2.03;;
3407;SDS011;1717;50.240;8.406;2023-07-13T00:20:27;3.07;;;1.40;;
3407;SDS011;1717;50.240;8.406;2023-07-13T00:22:54;1.80;;;1.40;;
3407;SDS011;1717;50.240;8.406;2023-07-13T00:25:23;2.00;;;1.40;;
3407;SDS011;1717;50.240;8.406;2023-07-13T00:27:53;3.27;;;2.37;;
3407;SDS011;1717;50.240;8.406;2023-07-13T00:30:20;1.67;;;1.40;;
3407;SDS011;1717;50.240;8.406;2023-07-13T00:32:47;2.00;;;1.80;;
3407;SDS011;1717;50.240;8.406;2023-07-13T00:35:14;1.73;;;1.13;;
3407;SDS011;1717;50.240;8.406;2023-07-13T00:37:42;2.50;;;1.93;;
3407;SDS011;1717;50.240;8.406;2023-07-13T00:40:09;1.63;;;1.30;;
3407;SDS011;1717;50.240;8.406;2023-07-13T00:42:39;2.17;;;1.50;;
3407;SDS011;1717;50.240;8.406;2023-07-13T00:46:02;1.53;;;1.43;;
3407;SDS011;1717;50.240;8.406;2023-07-13T00:48:13;2.90;;;1.13;;
3407;SDS011;1717;50.240;8.406;2023-07-13T00:50:43;2.60;;;1.47;;
3407;SDS011;1717;50.240;8.406;2023-07-13T00:53:12;1.90;;;1.33;;
3407;SDS011;1717;50.240;8.406;2023-07-13T00:55:40;2.47;;;1.67;;
3407;SDS011;1717;50.240;8.406;2023-07-13T00:58:08;1.73;;;1.40;;
3407;SDS011;1717;50.240;8.406;2023-07-13T01:00:36;3.33;;;1.50;;
3407;SDS011;1717;50.240;8.406;2023-07-13T01:03:04;4.10;;;1.80;;
3407;SDS011;1717;50.240;8.406;2023-07-13T01:05:32;4.37;;;1.67;;
3407;SDS011;1717;50.240;8.406;2023-07-13T01:08:02;1.80;;;1.33;;
3407;SDS011;1717;50.240;8.406;2023-07-13T01:10:30;1.27;;;1.17;;
3407;SDS011;1717;50.240;8.406;2023-07-13T01:13:03;3.90;;;1.23;;
3407;SDS011;1717;50.240;8.406;2023-07-13T01:15:36;1.47;;;1.27;;
3407;SDS011;1717;50.240;8.406;2023-07-13T01:18:04;2.53;;;1.40;;
3407;SDS011;1717;50.240;8.406;2023-07-13T01:20:32;1.77;;;1.40;;
3407;SDS011;1717;50.240;8.406;2023-07-13T01:23:04;1.97;;;1.23;;
3407;SDS011;1717;50.240;8.406;2023-07-13T01:25:32;1.50;;;1.20;;
3407;SDS011;1717;50.240;8.406;2023-07-13T01:28:00;2.60;;;1.67;;
3407;SDS011;1717;50.240;8.406;2023-07-13T01:30:28;2.37;;;1.60;;
3407;SDS011;1717;50.240;8.406;2023-07-13T01:32:56;3.13;;;1.90;;
3407;SDS011;1717;50.240;8.406;2023-07-13T01:35:22;4.00;;;1.57;;
3407;SDS011;1717;50.240;8.406;2023-07-13T01:37:50;2.77;;;1.30;;
3407;SDS011;1717;50.240;8.406;2023-07-13T01:40:18;1.73;;;1.20;;
3407;SDS011;1717;50.240;8.406;2023-07-13T01:42:46;2.30;;;1.53;;
3407;SDS011;1717;50.240;8.406;2023-07-13T01:45:13;2.60;;;1.40;;
3407;SDS011;1717;50.240;8.406;2023-07-13T01:47:40;2.97;;;1.70;;
3407;SDS011;1717;50.240;8.406;2023-07-13T01:50:07;1.40;;;1.30;;
3407;SDS011;1717;50.240;8.406;2023-07-13T01:52:34;3.23;;;1.30;;
3407;SDS011;1717;50.240;8.406;2023-07-13T01:55:01;2.20;;;1.20;;
3407;SDS011;1717;50.240;8.406;2023-07-13T01:57:30;2.70;;;1.47;;
3407;SDS011;1717;50.240;8.406;2023-07-13T01:59:57;5.53;;;2.17;;
3407;SDS011;1717;50.240;8.406;2023-07-13T02:02:24;3.70;;;1.47;;
3407;SDS011;1717;50.240;8.406;2023-07-13T02:04:51;4.20;;;1.40;;
3407;SDS011;1717;50.240;8.406;2023-07-13T02:07:17;2.80;;;1.40;;
3407;SDS011;1717;50.240;8.406;2023-07-13T02:09:44;2.30;;;1.60;;
3407;SDS011;1717;50.240;8.406;2023-07-13T02:12:11;1.97;;;1.13;;
3407;SDS011;1717;50.240;8.406;2023-07-13T02:14:40;2.20;;;1.20;;
3407;SDS011;1717;50.240;8.406;2023-07-13T02:17:06;1.40;;;1.30;;
3407;SDS011;1717;50.240;8.406;2023-07-13T02:19:33;3.17;;;1.10;;
3407;SDS011;1717;50.240;8.406;2023-07-13T02:22:00;2.80;;;1.30;;
3407;SDS011;1717;50.240;8.406;2023-07-13T02:24:27;2.60;;;1.20;;
3407;SDS011;1717;50.240;8.406;2023-07-13T02:26:54;4.87;;;1.40;;
3407;SDS011;1717;50.240;8.406;2023-07-13T02:29:21;1.63;;;1.23;;
3407;SDS011;1717;50.240;8.406;2023-07-13T02:31:49;4.03;;;1.40;;
3407;SDS011;1717;50.240;8.406;2023-07-13T02:34:16;5.57;;;1.53;;
3407;SDS011;1717;50.240;8.406;2023-07-13T02:36:43;2.23;;;1.97;;
3407;SDS011;1717;50.240;8.406;2023-07-13T02:39:10;5.37;;;1.37;;
3407;SDS011;1717;50.240;8.406;2023-07-13T02:41:38;3.23;;;1.27;;
3407;SDS011;1717;50.240;8.406;2023-07-13T02:44:05;2.40;;;1.53;;
3407;SDS011;1717;50.240;8.406;2023-07-13T02:46:34;1.70;;;1.20;;
3407;SDS011;1717;50.240;8.406;2023-07-13T02:49:03;1.70;;;1.60;;
3407;SDS011;1717;50.240;8.406;2023-07-13T02:51:31;1.50;;;1.27;;
3407;SDS011;1717;50.240;8.406;2023-07-13T02:53:59;1.47;;;1.10;;
3407;SDS011;1717;50.240;8.406;2023-07-13T02:56:27;3.03;;;1.30;;
3407;SDS011;1717;50.240;8.406;2023-07-13T02:58:55;1.40;;;1.30;;
3407;SDS011;1717;50.240;8.406;2023-07-13T03:01:22;1.80;;;0.97;;
3407;SDS011;1717;50.240;8.406;2023-07-13T03:03:50;1.90;;;1.27;;
3407;SDS011;1717;50.240;8.406;2023-07-13T03:06:19;3.50;;;1.43;;
3407;SDS011;1717;50.240;8.406;2023-07-13T03:08:46;1.93;;;1.17;;
3407;SDS011;1717;50.240;8.406;2023-07-13T03:11:14;2.03;;;1.27;;
3407;SDS011;1717;50.240;8.406;2023-07-13T03:13:43;2.63;;;1.30;;
3407;SDS011;1717;50.240;8.406;2023-07-13T03:16:10;1.80;;;1.27;;
3407;SDS011;1717;50.240;8.406;2023-07-13T03:18:37;4.53;;;1.20;;
3407;SDS011;1717;50.240;8.406;2023-07-13T03:21:04;2.63;;;1.50;;
3407;SDS011;1717;50.240;8.406;2023-07-13T03:23:33;1.13;;;1.03;;
3407;SDS011;1717;50.240;8.406;2023-07-13T03:26:03;1.80;;;1.33;;
3407;SDS011;1717;50.240;8.406;2023-07-13T03:28:31;0.90;;;0.90;;
3407;SDS011;1717;50.240;8.406;2023-07-13T03:30:59;3.43;;;1.30;;
3407;SDS011;1717;50.240;8.406;2023-07-13T03:33:26;1.87;;;1.00;;
3407;SDS011;1717;50.240;8.406;2023-07-13T03:35:53;0.97;;;0.90;;
3407;SDS011;1717;50.240;8.406;2023-07-13T03:38:20;2.90;;;1.40;;
3407;SDS011;1717;50.240;8.406;2023-07-13T03:40:48;2.67;;;0.97;;
3407;SDS011;1717;50.240;8.406;2023-07-13T03:43:15;1.60;;;1.30;;
3407;SDS011;1717;50.240;8.406;2023-07-13T03:45:42;3.30;;;1.60;;
3407;SDS011;1717;50.240;8.406;2023-07-13T03:48:09;3.27;;;2.00;;
3407;SDS011;1717;50.240;8.406;2023-07-13T03:50:36;2.80;;;1.50;;
3407;SDS011;1717;50.240;8.406;2023-07-13T03:53:03;2.30;;;1.43;;
3407;SDS011;1717;50.240;8.406;2023-07-13T03:55:30;1.80;;;1.13;;
3407;SDS011;1717;50.240;8.406;2023-07-13T03:57:59;1.40;;;1.03;;
3407;SDS011;1717;50.240;8.406;2023-07-13T04:00:47;1.30;;;1.20;;
3407;SDS011;1717;50.240;8.406;2023-07-13T04:03:15;1.33;;;1.13;;
3407;SDS011;1717;50.240;8.406;2023-07-13T04:05:42;1.63;;;1.20;;
3407;SDS011;1717;50.240;8.406;2023-07-13T04:08:09;2.03;;;1.20;;
3407;SDS011;1717;50.240;8.406;2023-07-13T04:10:36;4.40;;;1.30;;
3407;SDS011;1717;50.240;8.406;2023-07-13T04:13:03;4.77;;;1.47;;
3407;SDS011;1717;50.240;8.406;2023-07-13T04:15:30;1.33;;;1.20;;
3407;SDS011;1717;50.240;8.406;2023-07-13T04:18:00;3.97;;;1.30;;
3407;SDS011;1717;50.240;8.406;2023-07-13T04:20:28;1.70;;;1.47;;
3407;SDS011;1717;50.240;8.406;2023-07-13T04:22:55;5.60;;;1.50;;
3407;SDS011;1717;50.240;8.406;2023-07-13T04:25:22;5.47;;;1.63;;
3407;SDS011;1717;50.240;8.406;2023-07-13T04:27:50;3.90;;;1.23;;
3407;SDS011;1717;50.240;8.406;2023-07-13T04:30:17;2.83;;;1.33;;
3407;SDS011;1717;50.240;8.406;2023-07-13T04:32:43;2.70;;;1.20;;
3407;SDS011;1717;50.240;8.406;2023-07-13T04:35:12;1.70;;;1.13;;
3407;SDS011;1717;50.240;8.406;2023-07-13T04:37:39;4.40;;;1.10;;
3407;SDS011;1717;50.240;8.406;2023-07-13T04:40:06;2.70;;;1.40;;
3407;SDS011;1717;50.240;8.406;2023-07-13T04:42:36;2.00;;;1.70;;
3407;SDS011;1717;50.240;8.406;2023-07-13T04:45:04;4.40;;;1.50;;
3407;SDS011;1717;50.240;8.406;2023-07-13T04:47:31;3.70;;;1.47;;
3407;SDS011;1717;50.240;8.406;2023-07-13T04:49:58;3.00;;;1.20;;
3407;SDS011;1717;50.240;8.406;2023-07-13T04:52:27;1.50;;;1.27;;
3407;SDS011;1717;50.240;8.406;2023-07-13T04:54:54;2.50;;;1.47;;
3407;SDS011;1717;50.240;8.406;2023-07-13T04:57:20;1.83;;;1.53;;
3407;SDS011;1717;50.240;8.406;2023-07-13T04:59:47;14.53;;;3.10;;
3407;SDS011;1717;50.240;8.406;2023-07-13T05:02:14;3.77;;;2.10;;
3407;SDS011;1717;50.240;8.406;2023-07-13T05:04:41;1.67;;;1.57;;
3407;SDS011;1717;50.240;8.406;2023-07-13T05:07:08;2.93;;;1.30;;
3407;SDS011;1717;50.240;8.406;2023-07-13T05:09:37;2.43;;;1.37;;
3407;SDS011;1717;50.240;8.406;2023-07-13T05:12:05;1.30;;;1.20;;
3407;SDS011;1717;50.240;8.406;2023-07-13T05:14:33;3.27;;;1.20;;
3407;SDS011;1717;50.240;8.406;2023-07-13T05:17:00;1.50;;;1.40;;
3407;SDS011;1717;50.240;8.406;2023-07-13T05:19:27;1.53;;;1.40;;
3407;SDS011;1717;50.240;8.406;2023-07-13T05:21:54;4.13;;;1.90;;
3407;SDS011;1717;50.240;8.406;2023-07-13T05:24:21;4.83;;;1.00;;
3407;SDS011;1717;50.240;8.406;2023-07-13T05:26:49;2.17;;;1.87;;
3407;SDS011;1717;50.240;8.406;2023-07-13T05:29:16;3.70;;;1.43;;
3407;SDS011;1717;50.240;8.406;2023-07-13T05:31:42;3.30;;;1.47;;
3407;SDS011;1717;50.240;8.406;2023-07-13T05:34:09;3.33;;;1.50;;
3407;SDS011;1717;50.240;8.406;2023-07-13T05:36:36;3.10;;;1.60;;
3407;SDS011;1717;50.240;8.406;2023-07-13T05:39:03;1.20;;;1.10;;
3407;SDS011;1717;50.240;8.406;2023-07-13T05:41:30;4.47;;;1.87;;
3407;SDS011;1717;50.240;8.406;2023-07-13T05:43:58;1.37;;;1.10;;
3407;SDS011;1717;50.240;8.406;2023-07-13T05:46:25;4.83;;;2.30;;
3407;SDS011;1717;50.240;8.406;2023-07-13T05:48:52;1.60;;;1.20;;
3407;SDS011;1717;50.240;8.406;2023-07-13T05:51:19;3.50;;;1.27;;
3407;SDS011;1717;50.240;8.406;2023-07-13T05:53:46;1.33;;;1.00;;
3407;SDS011;1717;50.240;8.406;2023-07-13T05:56:13;2.43;;;1.20;;
3407;SDS011;1717;50.240;8.406;2023-07-13T05:58:40;1.97;;;0.80;;
3407;SDS011;1717;50.240;8.406;2023-07-13T06:01:10;7.07;;;1.43;;
3407;SDS011;1717;50.240;8.406;2023-07-13T06:03:38;3.37;;;1.50;;
3407;SDS011;1717;50.240;8.406;2023-07-13T06:06:05;4.37;;;1.50;;
3407;SDS011;1717;50.240;8.406;2023-07-13T06:08:32;5.03;;;1.20;;
3407;SDS011;1717;50.240;8.406;2023-07-13T06:11:03;1.60;;;1.20;;
3407;SDS011;1717;50.240;8.406;2023-07-13T06:13:30;6.80;;;1.57;;
3407;SDS011;1717;50.240;8.406;2023-07-13T06:15:58;3.00;;;1.27;;
3407;SDS011;1717;50.240;8.406;2023-07-13T06:18:26;2.40;;;1.57;;
3407;SDS011;1717;50.240;8.406;2023-07-13T06:20:53;4.60;;;1.50;;
3407;SDS011;1717;50.240;8.406;2023-07-13T06:23:20;5.27;;;1.43;;
3407;SDS011;1717;50.240;8.406;2023-07-13T06:25:47;2.43;;;1.10;;
3407;SDS011;1717;50.240;8.406;2023-07-13T06:28:13;2.63;;;1.03;;
3407;SDS011;1717;50.240;8.406;2023-07-13T06:30:40;1.10;;;1.00;;
3407;SDS011;1717;50.240;8.406;2023-07-13T06:33:07;1.67;;;1.00;;
3407;SDS011;1717;50.240;8.406;2023-07-13T06:35:35;1.20;;;0.87;;
3407;SDS011;1717;50.240;8.406;2023-07-13T06:38:02;1.20;;;1.00;;
3407;SDS011;1717;50.240;8.406;2023-07-13T06:40:30;1.73;;;0.93;;
3407;SDS011;1717;50.240;8.406;2023-07-13T06:42:56;1.27;;;0.97;;
3407;SDS011;1717;50.240;8.406;2023-07-13T06:45:23;2.17;;;1.07;;
3407;SDS011;1717;50.240;8.406;2023-07-13T06:47:50;1.57;;;1.10;;
3407;SDS011;1717;50.240;8.406;2023-07-13T06:50:17;1.70;;;1.20;;
3407;SDS011;1717;50.240;8.406;2023-07-13T06:52:45;2.87;;;1.30;;
3407;SDS011;1717;50.240;8.406;2023-07-13T06:55:12;4.17;;;1.03;;
3407;SDS011;1717;50.240;8.406;2023-07-13T06:57:39;2.53;;;1.03;;
3407;SDS011;1717;50.240;8.406;2023-07-13T07:00:06;3.13;;;0.70;;
3407;SDS011;1717;50.240;8.406;2023-07-13T07:02:35;1.70;;;0.83;;
3407;SDS011;1717;50.240;8.406;2023-07-13T07:05:01;1.13;;;0.80;;
3407;SDS011;1717;50.240;8.406;2023-07-13T07:07:28;0.90;;;0.60;;
3407;SDS011;1717;50.240;8.406;2023-07-13T07:09:56;1.50;;;0.80;;
3407;SDS011;1717;50.240;8.406;2023-07-13T07:12:23;1.77;;;0.97;;
3407;SDS011;1717;50.240;8.406;2023-07-13T07:14:50;2.47;;;0.90;;
3407;SDS011;1717;50.240;8.406;2023-07-13T07:17:17;1.10;;;0.90;;
3407;SDS011;1717;50.240;8.406;2023-07-13T07:19:44;0.80;;;0.70;;
3407;SDS011;1717;50.240;8.406;2023-07-13T07:22:11;1.70;;;1.03;;
3407;SDS011;1717;50.240;8.406;2023-07-13T07:24:37;1.80;;;0.97;;
3407;SDS011;1717;50.240;8.406;2023-07-13T07:27:06;2.30;;;0.97;;
3407;SDS011;1717;50.240;8.406;2023-07-13T07:29:33;1.03;;;0.90;;
3407;SDS011;1717;50.240;8.406;2023-07-13T07:31:59;1.53;;;0.70;;
3407;SDS011;1717;50.240;8.406;2023-07-13T07:34:26;1.93;;;0.83;;
3407;SDS011;1717;50.240;8.406;2023-07-13T07:36:53;1.93;;;0.77;;
3407;SDS011;1717;50.240;8.406;2023-07-13T07:39:21;2.00;;;1.10;;
3407;SDS011;1717;50.240;8.406;2023-07-13T07:41:47;1.53;;;0.97;;
3407;SDS011;1717;50.240;8.406;2023-07-13T07:44:15;2.23;;;0.80;;
3407;SDS011;1717;50.240;8.406;2023-07-13T07:46:42;0.73;;;0.60;;
3407;SDS011;1717;50.240;8.406;2023-07-13T07:49:09;1.77;;;0.70;;
3407;SDS011;1717;50.240;8.406;2023-07-13T07:51:36;2.73;;;0.90;;
3407;SDS011;1717;50.240;8.406;2023-07-13T07:54:03;1.33;;;1.23;;
3407;SDS011;1717;50.240;8.406;2023-07-13T07:56:31;1.33;;;1.00;;
3407;SDS011;1717;50.240;8.406;2023-07-13T07:58:58;2.33;;;1.10;;
3407;SDS011;1717;50.240;8.406;2023-07-13T08:01:26;2.60;;;1.00;;
3407;SDS011;1717;50.240;8.406;2023-07-13T08:03:53;1.00;;;0.83;;
3407;SDS011;1717;50.240;8.406;2023-07-13T08:06:20;2.87;;;1.10;;
3407;SDS011;1717;50.240;8.406;2023-07-13T08:08:48;2.03;;;1.07;;
3407;SDS011;1717;50.240;8.406;2023-07-13T08:11:15;1.10;;;0.57;;
3407;SDS011;1717;50.240;8.406;2023-07-13T08:13:42;1.20;;;1.00;;
3407;SDS011;1717;50.240;8.406;2023-07-13T08:16:09;3.70;;;0.93;;
3407;SDS011;1717;50.240;8.406;2023-07-13T08:18:38;2.20;;;0.77;;
3407;SDS011;1717;50.240;8.406;2023-07-13T08:21:05;0.93;;;0.83;;
3407;SDS011;1717;50.240;8.406;2023-07-13T08:23:33;1.80;;;0.97;;
3407;SDS011;1717;50.240;8.406;2023-07-13T08:26:00;1.93;;;0.90;;
3407;SDS011;1717;50.240;8.406;2023-07-13T08:28:28;1.93;;;0.90;;
3407;SDS011;1717;50.240;8.406;2023-07-13T08:30:57;1.60;;;0.70;;
3407;SDS011;1717;50.240;8.406;2023-07-13T08:33:26;1.87;;;1.00;;
3407;SDS011;1717;50.240;8.406;2023-07-13T08:35:55;2.60;;;1.83;;
3407;SDS011;1717;50.240;8.406;2023-07-13T08:38:22;3.30;;;1.40;;
3407;SDS011;1717;50.240;8.406;2023-07-13T08:40:50;4.70;;;0.77;;
3407;SDS011;1717;50.240;8.406;2023-07-13T08:43:20;1.63;;;1.00;;
3407;SDS011;1717;50.240;8.406;2023-07-13T08:45:52;0.70;;;0.70;;
3407;SDS011;1717;50.240;8.406;2023-07-13T08:48:24;3.90;;;1.03;;
3407;SDS011;1717;50.240;8.406;2023-07-13T08:50:56;1.00;;;0.90;;
3407;SDS011;1717;50.240;8.406;2023-07-13T08:53:25;1.67;;;0.80;;
3407;SDS011;1717;50.240;8.406;2023-07-13T08:56:02;2.90;;;0.70;;
3407;SDS011;1717;50.240;8.406;2023-07-13T08:58:33;0.90;;;0.90;;
3407;SDS011;1717;50.240;8.406;2023-07-13T09:01:02;0.80;;;0.80;;
3407;SDS011;1717;50.240;8.406;2023-07-13T09:03:40;0.90;;;0.70;;
3407;SDS011;1717;50.240;8.406;2023-07-13T09:06:14;1.53;;;0.83;;
3407;SDS011;1717;50.240;8.406;2023-07-13T09:08:46;2.90;;;0.77;;
3407;SDS011;1717;50.240;8.406;2023-07-13T09:11:23;0.83;;;0.73;;
3407;SDS011;1717;50.240;8.406;2023-07-13T09:14:03;1.53;;;0.93;;
3407;SDS011;1717;50.240;8.406;2023-07-13T09:16:46;1.27;;;0.83;;
3407;SDS011;1717;50.240;8.406;2023-07-13T09:19:16;2.30;;;0.77;;
3407;SDS011;1717;50.240;8.406;2023-07-13T09:21:50;2.33;;;0.80;;
3407;SDS011;1717;50.240;8.406;2023-07-13T09:24:27;0.60;;;0.60;;
3407;SDS011;1717;50.240;8.406;2023-07-13T09:26:57;1.20;;;0.80;;
3407;SDS011;1717;50.240;8.406;2023-07-13T09:29:27;2.70;;;1.10;;
3407;SDS011;1717;50.240;8.406;2023-07-13T09:31:59;1.73;;;1.33;;
3407;SDS011;1717;50.240;8.406;2023-07-13T09:34:29;0.80;;;0.80;;
3407;SDS011;1717;50.240;8.406;2023-07-13T09:36:59;1.60;;;0.60;;
3407;SDS011;1717;50.240;8.406;2023-07-13T09:39:27;2.30;;;1.20;;
3407;SDS011;1717;50.240;8.406;2023-07-13T09:41:59;0.80;;;0.70;;
3407;SDS011;1717;50.240;8.406;2023-07-13T09:44:30;1.47;;;0.90;;
3407;SDS011;1717;50.240;8.406;2023-07-13T09:47:00;2.40;;;1.00;;
3407;SDS011;1717;50.240;8.406;2023-07-13T09:49:28;1.70;;;0.70;;
3407;SDS011;1717;50.240;8.406;2023-07-13T09:52:01;1.23;;;1.00;;
3407;SDS011;1717;50.240;8.406;2023-07-13T09:54:32;5.43;;;1.37;;
3407;SDS011;1717;50.240;8.406;2023-07-13T09:57:00;1.10;;;1.07;;
3407;SDS011;1717;50.240;8.406;2023-07-13T09:59:29;3.53;;;1.37;;
3407;SDS011;1717;50.240;8.406;2023-07-13T10:01:57;4.37;;;1.03;;
3407;SDS011;1717;50.240;8.406;2023-07-13T10:04:27;5.30;;;1.20;;
3407;SDS011;1717;50.240;8.406;2023-07-13T10:07:05;1.13;;;1.00;;
3407;SDS011;1717;50.240;8.406;2023-07-13T10:09:34;2.80;;;1.50;;
3407;SDS011;1717;50.240;8.406;2023-07-13T10:12:01;1.47;;;0.90;;
3407;SDS011;1717;50.240;8.406;2023-07-13T10:14:28;2.50;;;1.33;;
3407;SDS011;1717;50.240;8.406;2023-07-13T10:16:56;2.20;;;1.10;;
3407;SDS011;1717;50.240;8.406;2023-07-13T10:19:27;0.87;;;0.70;;
3407;SDS011;1717;50.240;8.406;2023-07-13T10:21:59;4.63;;;1.40;;
3407;SDS011;1717;50.240;8.406;2023-07-13T10:24:30;2.67;;;1.20;;
3407;SDS011;1717;50.240;8.406;2023-07-13T10:27:00;2.50;;;1.10;;
3407;SDS011;1717;50.240;8.406;2023-07-13T10:29:32;1.27;;;1.13;;
3407;SDS011;1717;50.240;8.406;2023-07-13T10:32:03;3.30;;;1.27;;
3407;SDS011;1717;50.240;8.406;2023-07-13T10:34:36;2.40;;;1.67;;
3407;SDS011;1717;50.240;8.406;2023-07-13T10:37:03;1.60;;;0.90;;
3407;SDS011;1717;50.240;8.406;2023-07-13T10:39:35;2.10;;;1.13;;
3407;SDS011;1717;50.240;8.406;2023-07-13T10:42:04;1.90;;;1.30;;
3407;SDS011;1717;50.240;8.406;2023-07-13T10:44:37;1.47;;;1.10;;
3407;SDS011;1717;50.240;8.406;2023-07-13T10:47:06;2.60;;;1.13;;
3407;SDS011;1717;50.240;8.406;2023-07-13T10:49:37;2.00;;;1.10;;
3407;SDS011;1717;50.240;8.406;2023-07-13T10:52:20;1.33;;;1.20;;
3407;SDS011;1717;50.240;8.406;2023-07-13T10:55:31;1.00;;;0.87;;
3407;SDS011;1717;50.240;8.406;2023-07-13T10:58:01;1.30;;;0.80;;
3407;SDS011;1717;50.240;8.406;2023-07-13T11:00:32;1.83;;;1.37;;
3407;SDS011;1717;50.240;8.406;2023-07-13T11:03:13;2.27;;;1.37;;
3407;SDS011;1717;50.240;8.406;2023-07-13T11:05:43;1.10;;;0.80;;
3407;SDS011;1717;50.240;8.406;2023-07-13T11:08:16;1.70;;;1.10;;
3407;SDS011;1717;50.240;8.406;2023-07-13T11:10:52;4.77;;;1.40;;
3407;SDS011;1717;50.240;8.406;2023-07-13T11:13:37;1.57;;;1.00;;
3407;SDS011;1717;50.240;8.406;2023-07-13T11:16:42;1.50;;;1.30;;
3407;SDS011;1717;50.240;8.406;2023-07-13T11:19:25;1.20;;;1.10;;
3407;SDS011;1717;50.240;8.406;2023-07-13T11:22:09;1.83;;;1.20;;
3407;SDS011;1717;50.240;8.406;2023-07-13T11:27:50;2.20;;;1.60;;
3407;SDS011;1717;50.240;8.406;2023-07-13T11:30:22;2.93;;;1.03;;
3407;SDS011;1717;50.240;8.406;2023-07-13T11:32:52;1.60;;;1.20;;
3407;SDS011;1717;50.240;8.406;2023-07-13T11:35:32;2.70;;;1.10;;
3407;SDS011;1717;50.240;8.406;2023-07-13T11:38:03;2.07;;;1.93;;
3407;SDS011;1717;50.240;8.406;2023-07-13T11:40:41;1.43;;;1.10;;
3407;SDS011;1717;50.240;8.406;2023-07-13T11:43:11;1.30;;;0.97;;
3407;SDS011;1717;50.240;8.406;2023-07-13T11:45:40;3.10;;;1.10;;
3407;SDS011;1717;50.240;8.406;2023-07-13T11:48:16;3.03;;;1.73;;
3407;SDS011;1717;50.240;8.406;2023-07-13T11:50:53;2.13;;;1.20;;
3407;SDS011;1717;50.240;8.406;2023-07-13T11:53:23;2.10;;;1.00;;
3407;SDS011;1717;50.240;8.406;2023-07-13T11:55:53;1.93;;;1.47;;
3407;SDS011;1717;50.240;8.406;2023-07-13T11:58:22;1.70;;;1.30;;
3407;SDS011;1717;50.240;8.406;2023-07-13T12:00:53;2.57;;;1.40;;
3407;SDS011;1717;50.240;8.406;2023-07-13T12:03:24;7.53;;;1.47;;
3407;SDS011;1717;50.240;8.406;2023-07-13T12:05:55;3.73;;;1.80;;
3407;SDS011;1717;50.240;8.406;2023-07-13T12:08:26;2.97;;;2.03;;
3407;SDS011;1717;50.240;8.406;2023-07-13T12:10:58;12.30;;;2.00;;
3407;SDS011;1717;50.240;8.406;2023-07-13T12:13:34;3.90;;;2.27;;
3407;SDS011;1717;50.240;8.406;2023-07-13T12:16:07;4.10;;;3.70;;
3407;SDS011;1717;50.240;8.406;2023-07-13T12:18:39;5.03;;;3.87;;
3407;SDS011;1717;50.240;8.406;2023-07-13T12:21:10;5.13;;;3.90;;
3407;SDS011;1717;50.240;8.406;2023-07-13T12:23:40;4.10;;;2.70;;
3407;SDS011;1717;50.240;8.406;2023-07-13T12:26:10;3.43;;;2.43;;
3407;SDS011;1717;50.240;8.406;2023-07-13T12:28:47;3.43;;;3.03;;
3407;SDS011;1717;50.240;8.406;2023-07-13T12:31:24;6.13;;;2.20;;
3407;SDS011;1717;50.240;8.406;2023-07-13T12:33:56;2.80;;;1.80;;
3407;SDS011;1717;50.240;8.406;2023-07-13T12:36:24;2.03;;;1.53;;
3407;SDS011;1717;50.240;8.406;2023-07-13T12:38:54;6.23;;;1.90;;
3407;SDS011;1717;50.240;8.406;2023-07-13T12:41:21;1.63;;;1.50;;
3407;SDS011;1717;50.240;8.406;2023-07-13T12:43:51;1.20;;;1.10;;
3407;SDS011;1717;50.240;8.406;2023-07-13T12:46:19;2.80;;;1.50;;
3407;SDS011;1717;50.240;8.406;2023-07-13T12:48:50;5.93;;;2.00;;
3407;SDS011;1717;50.240;8.406;2023-07-13T12:51:21;2.50;;;1.57;;
3407;SDS011;1717;50.240;8.406;2023-07-13T12:53:55;5.70;;;2.30;;
3407;SDS011;1717;50.240;8.406;2023-07-13T12:56:25;4.73;;;1.90;;
3407;SDS011;1717;50.240;8.406;2023-07-13T12:58:56;1.80;;;1.30;;
3407;SDS011;1717;50.240;8.406;2023-07-13T13:01:25;3.77;;;1.60;;
3407;SDS011;1717;50.240;8.406;2023-07-13T13:03:55;2.30;;;0.97;;
3407;SDS011;1717;50.240;8.406;2023-07-13T13:06:23;2.03;;;1.33;;
3407;SDS011;1717;50.240;8.406;2023-07-13T13:08:52;2.00;;;1.40;;
3407;SDS011;1717;50.240;8.406;2023-07-13T13:11:22;5.83;;;1.80;;
3407;SDS011;1717;50.240;8.406;2023-07-13T13:13:51;1.63;;;1.30;;
3407;SDS011;1717;50.240;8.406;2023-07-13T13:16:21;1.97;;;1.40;;
3407;SDS011;1717;50.240;8.406;2023-07-13T13:18:51;3.40;;;1.50;;
3407;SDS011;1717;50.240;8.406;2023-07-13T13:21:19;4.70;;;1.40;;
3407;SDS011;1717;50.240;8.406;2023-07-13T13:23:47;2.47;;;1.47;;
3407;SDS011;1717;50.240;8.406;2023-07-13T13:26:15;1.57;;;1.23;;
3407;SDS011;1717;50.240;8.406;2023-07-13T13:28:42;2.70;;;1.10;;
3407;SDS011;1717;50.240;8.406;2023-07-13T13:31:10;1.73;;;1.53;;
3407;SDS011;1717;50.240;8.406;2023-07-13T13:33:40;1.93;;;1.23;;
3407;SDS011;1717;50.240;8.406;2023-07-13T13:36:12;2.93;;;1.27;;
3407;SDS011;1717;50.240;8.406;2023-07-13T13:38:42;4.43;;;1.60;;
3407;SDS011;1717;50.240;8.406;2023-07-13T13:41:10;2.20;;;1.50;;
3407;SDS011;1717;50.240;8.406;2023-07-13T13:43:38;1.57;;;1.40;;
3407;SDS011;1717;50.240;8.406;2023-07-13T13:46:11;2.80;;;1.20;;
3407;SDS011;1717;50.240;8.406;2023-07-13T13:48:43;2.33;;;1.40;;
3407;SDS011;1717;50.240;8.406;2023-07-13T13:51:14;2.80;;;1.53;;
3407;SDS011;1717;50.240;8.406;2023-07-13T13:53:42;2.00;;;1.53;;
3407;SDS011;1717;50.240;8.406;2023-07-13T13:56:09;1.70;;;1.60;;
3407;SDS011;1717;50.240;8.406;2023-07-13T13:58:36;1.97;;;1.80;;
3407;SDS011;1717;50.240;8.406;2023-07-13T14:01:03;3.43;;;1.47;;
3407;SDS011;1717;50.240;8.406;2023-07-13T14:03:33;2.00;;;1.13;;
3407;SDS011;1717;50.240;8.406;2023-07-13T14:06:02;2.70;;;1.73;;
3407;SDS011;1717;50.240;8.406;2023-07-13T14:08:31;5.10;;;1.67;;
3407;SDS011;1717;50.240;8.406;2023-07-13T14:11:00;1.40;;;1.30;;
3407;SDS011;1717;50.240;8.406;2023-07-13T14:13:30;2.80;;;1.40;;
3407;SDS011;1717;50.240;8.406;2023-07-13T14:16:01;4.20;;;1.67;;
3407;SDS011;1717;50.240;8.406;2023-07-13T14:18:28;2.03;;;1.33;;
3407;SDS011;1717;50.240;8.406;2023-07-13T14:20:55;3.00;;;1.47;;
3407;SDS011;1717;50.240;8.406;2023-07-13T14:23:23;1.80;;;1.13;;
3407;SDS011;1717;50.240;8.406;2023-07-13T14:25:50;2.60;;;1.63;;
3407;SDS011;1717;50.240;8.406;2023-07-13T14:28:19;1.23;;;1.10;;
3407;SDS011;1717;50.240;8.406;2023-07-13T14:30:47;4.17;;;1.57;;
3407;SDS011;1717;50.240;8.406;2023-07-13T14:33:15;1.50;;;1.23;;
3407;SDS011;1717;50.240;8.406;2023-07-13T14:35:42;3.00;;;1.57;;
3407;SDS011;1717;50.240;8.406;2023-07-13T14:38:10;1.40;;;1.30;;
3407;SDS011;1717;50.240;8.406;2023-07-13T14:40:41;2.27;;;1.23;;
3407;SDS011;1717;50.240;8.406;2023-07-13T14:43:09;2.50;;;1.40;;
3407;SDS011;1717;50.240;8.406;2023-07-13T14:45:38;2.40;;;1.30;;
3407;SDS011;1717;50.240;8.406;2023-07-13T14:48:12;3.13;;;1.50;;
3407;SDS011;1717;50.240;8.406;2023-07-13T14:50:42;5.43;;;1.23;;
3407;SDS011;1717;50.240;8.406;2023-07-13T14:53:09;3.07;;;1.50;;
3407;SDS011;1717;50.240;8.406;2023-07-13T14:55:37;2.47;;;1.23;;
3407;SDS011;1717;50.240;8.406;2023-07-13T14:58:06;4.10;;;1.70;;
3407;SDS011;1717;50.240;8.406;2023-07-13T15:00:33;2.57;;;1.20;;
3407;SDS011;1717;50.240;8.406;2023-07-13T15:03:00;2.87;;;1.60;;
3407;SDS011;1717;50.240;8.406;2023-07-13T15:05:28;1.73;;;1.30;;
3407;SDS011;1717;50.240;8.406;2023-07-13T15:07:57;1.30;;;1.20;;
3407;SDS011;1717;50.240;8.406;2023-07-13T15:10:25;3.10;;;1.00;;
3407;SDS011;1717;50.240;8.406;2023-07-13T15:12:56;3.73;;;1.27;;
3407;SDS011;1717;50.240;8.406;2023-07-13T15:15:27;5.20;;;1.37;;
3407;SDS011;1717;50.240;8.406;2023-07-13T15:17:56;2.00;;;1.40;;
3407;SDS011;1717;50.240;8.406;2023-07-13T15:20:25;3.37;;;1.30;;
3407;SDS011;1717;50.240;8.406;2023-07-13T15:22:54;1.87;;;1.30;;
3407;SDS011;1717;50.240;8.406;2023-07-13T15:25:22;1.63;;;1.30;;
3407;SDS011;1717;50.240;8.406;2023-07-13T15:27:51;1.80;;;1.20;;
3407;SDS011;1717;50.240;8.406;2023-07-13T15:30:18;2.10;;;1.40;;